createdAt,value
2023-07-08T00:04:01.616Z,2.80
2023-07-08T00:09:13.949Z,3.30
2023-07-08T00:14:21.728Z,3.50
2023-07-08T00:19:29.446Z,3.40
2023-07-08T00:24:37.168Z,3.60
2023-07-08T00:29:45.372Z,3.50
2023-07-08T00:34:53.115Z,3.40
2023-07-08T00:40:00.852Z,3.20
2023-07-08T00:45:33.056Z,3.70
2023-07-08T00:50:41.132Z,4.00
2023-07-08T00:55:49.200Z,3.80
2023-07-08T01:01:00.646Z,4.00
2023-07-08T01:06:08.706Z,3.70
2023-07-08T01:11:16.838Z,3.50
2023-07-08T01:16:25.476Z,3.80
2023-07-08T01:21:36.241Z,3.80
2023-07-08T01:26:47.867Z,3.90
2023-07-08T01:31:58.401Z,3.70
2023-07-08T01:37:08.790Z,3.80
2023-07-08T01:42:17.833Z,3.90
2023-07-08T01:47:26.438Z,3.70
2023-07-08T01:52:34.538Z,4.30
2023-07-08T01:57:42.516Z,4.60
2023-07-08T02:02:50.770Z,4.20
2023-07-08T02:07:59.491Z,4.20
2023-07-08T02:13:07.995Z,4.30
2023-07-08T02:18:16.444Z,4.20
2023-07-08T02:23:24.507Z,4.20
2023-07-08T02:28:32.249Z,3.70
2023-07-08T02:33:40.041Z,4.20
2023-07-08T02:38:47.796Z,4.00
2023-07-08T02:43:55.829Z,4.30
2023-07-08T02:49:03.919Z,3.50
2023-07-08T02:54:11.710Z,4.10
2023-07-08T02:59:19.456Z,4.20
2023-07-08T03:04:27.387Z,4.10
2023-07-08T03:09:35.765Z,4.50
2023-07-08T03:14:43.881Z,4.10
2023-07-08T03:19:52.141Z,4.10
2023-07-08T03:25:00.137Z,3.90
2023-07-08T03:30:10.456Z,4.00
2023-07-08T03:35:18.796Z,4.10
2023-07-08T03:40:26.866Z,3.90
2023-07-08T03:45:34.567Z,4.10
2023-07-08T03:50:44.124Z,4.00
2023-07-08T03:55:51.887Z,4.00
2023-07-08T04:00:59.809Z,4.30
2023-07-08T04:06:07.896Z,4.50
2023-07-08T04:11:18.312Z,4.00
2023-07-08T04:16:29.454Z,4.60
2023-07-08T04:21:37.740Z,4.10
2023-07-08T04:26:47.508Z,4.60
2023-07-08T04:31:55.277Z,4.10
2023-07-08T04:37:05.546Z,4.50
2023-07-08T04:42:14.254Z,4.90
2023-07-08T04:47:22.349Z,4.20
2023-07-08T04:52:30.429Z,4.00
2023-07-08T04:57:38.397Z,4.30
2023-07-08T05:02:46.195Z,3.50
2023-07-08T05:07:54.537Z,4.20
2023-07-08T05:13:04.163Z,4.50
2023-07-08T05:18:11.943Z,5.60
2023-07-08T05:23:19.728Z,4.30
2023-07-08T05:28:28.161Z,4.30
2023-07-08T05:33:35.959Z,4.50
2023-07-08T05:38:43.760Z,4.30
2023-07-08T05:43:51.688Z,4.60
2023-07-08T05:49:01.811Z,3.80
2023-07-08T05:54:10.513Z,4.10
2023-07-08T05:59:18.532Z,4.00
2023-07-08T06:04:26.336Z,3.70
2023-07-08T06:09:34.311Z,3.80
2023-07-08T06:14:42.175Z,3.20
2023-07-08T06:19:49.996Z,3.80
2023-07-08T06:24:57.687Z,3.40
2023-07-08T06:30:06.748Z,3.40
2023-07-08T06:35:14.953Z,2.80
2023-07-08T06:40:22.936Z,3.30
2023-07-08T06:45:31.044Z,3.20
2023-07-08T06:50:39.840Z,3.00
2023-07-08T06:55:49.704Z,2.90
2023-07-08T07:00:58.163Z,2.80
2023-07-08T07:06:06.133Z,2.40
2023-07-08T07:11:14.146Z,2.10
2023-07-08T07:16:22.247Z,1.90
2023-07-08T07:21:31.440Z,1.80
2023-07-08T07:26:39.186Z,2.10
2023-07-08T07:31:49.057Z,2.50
2023-07-08T07:36:58.229Z,2.00
2023-07-08T07:42:06.915Z,2.00
2023-07-08T07:47:15.499Z,1.80
2023-07-08T07:52:25.394Z,1.90
2023-07-08T07:57:33.443Z,1.50
2023-07-08T08:02:41.208Z,1.60
2023-07-08T08:07:50.225Z,2.00
2023-07-08T08:13:00.220Z,2.20
2023-07-08T08:18:07.995Z,1.70
2023-07-08T08:23:15.910Z,2.00
2023-07-08T08:28:23.647Z,1.60
2023-07-08T08:33:31.428Z,1.90
2023-07-08T08:38:39.150Z,1.70
2023-07-08T08:43:49.661Z,1.90
2023-07-08T08:49:04.568Z,1.90
2023-07-08T08:54:12.402Z,2.00
2023-07-08T08:59:27.084Z,1.90
2023-07-08T09:04:39.256Z,1.90
2023-07-08T09:09:52.792Z,1.90
2023-07-08T09:15:01.420Z,1.60
2023-07-08T09:20:22.505Z,1.70
2023-07-08T09:25:34.487Z,1.40
2023-07-08T09:30:42.679Z,1.70
2023-07-08T09:35:51.127Z,1.60
2023-07-08T09:40:59.055Z,1.80
2023-07-08T09:46:07.360Z,2.10
2023-07-08T09:51:17.842Z,1.60
2023-07-08T09:56:27.718Z,1.50
2023-07-08T10:01:36.804Z,1.90
2023-07-08T10:06:49.353Z,1.90
2023-07-08T10:12:02.321Z,1.70
2023-07-08T10:17:17.969Z,1.70
2023-07-08T10:22:36.515Z,1.50
2023-07-08T10:27:56.317Z,2.10
2023-07-08T10:33:19.360Z,1.80
2023-07-08T10:38:41.650Z,1.50
2023-07-08T10:44:01.908Z,1.70
2023-07-08T10:49:31.113Z,1.90
2023-07-08T10:54:58.887Z,1.50
2023-07-08T11:00:22.145Z,1.60
2023-07-08T11:05:37.971Z,1.40
2023-07-08T11:10:59.742Z,1.80
2023-07-08T11:16:23.926Z,1.70
2023-07-08T11:21:38.117Z,1.80
2023-07-08T11:26:51.097Z,2.00
2023-07-08T11:31:59.976Z,1.80
2023-07-08T11:37:09.973Z,2.00
2023-07-08T11:42:27.209Z,1.80
2023-07-08T11:47:42.040Z,1.70
2023-07-08T11:52:57.947Z,2.30
2023-07-08T11:58:10.637Z,2.10
2023-07-08T12:03:31.209Z,2.00
2023-07-08T12:08:41.953Z,2.20
2023-07-08T12:13:49.757Z,2.40
2023-07-08T12:18:59.942Z,2.20
2023-07-08T12:24:09.603Z,1.80
2023-07-08T12:29:17.915Z,1.70
2023-07-08T12:34:27.945Z,2.00
2023-07-08T12:39:37.523Z,1.80
2023-07-08T12:44:45.558Z,1.80
2023-07-08T12:49:54.825Z,2.70
2023-07-08T12:55:02.919Z,1.80
2023-07-08T13:00:17.084Z,1.90
2023-07-08T13:05:26.189Z,2.10
2023-07-08T13:10:38.102Z,1.50
2023-07-08T13:15:46.814Z,1.90
2023-07-08T13:20:56.504Z,1.80
2023-07-08T13:26:14.326Z,2.10
2023-07-08T13:31:25.557Z,1.90
2023-07-08T13:36:37.117Z,1.80
2023-07-08T13:41:47.227Z,2.00
2023-07-08T13:47:00.021Z,1.80
2023-07-08T13:52:19.715Z,1.90
2023-07-08T13:57:34.556Z,1.60
2023-07-08T14:02:47.102Z,1.90
2023-07-08T14:07:55.333Z,2.10
2023-07-08T14:13:03.595Z,1.60
2023-07-08T14:18:14.269Z,1.80
2023-07-08T14:23:22.159Z,1.70
2023-07-08T14:28:30.005Z,1.80
2023-07-08T14:33:38.551Z,1.60
2023-07-08T14:38:47.236Z,1.50
2023-07-08T14:43:56.610Z,1.90
2023-07-08T14:49:11.265Z,2.00
2023-07-08T14:54:19.616Z,2.30
2023-07-08T14:59:30.990Z,1.90
2023-07-08T15:04:39.293Z,2.10
2023-07-08T15:09:48.511Z,2.10
2023-07-08T15:14:57.286Z,2.10
2023-07-08T15:20:16.074Z,2.10
2023-07-08T15:25:24.730Z,2.00
2023-07-08T15:30:33.805Z,2.10
2023-07-08T15:35:42.096Z,1.80
2023-07-08T15:40:52.442Z,2.20
2023-07-08T15:46:03.609Z,1.80
2023-07-08T15:51:15.312Z,2.30
2023-07-08T15:56:24.912Z,1.70
2023-07-08T16:01:33.930Z,2.20
2023-07-08T16:06:42.606Z,2.10
2023-07-08T16:11:51.723Z,4.30
2023-07-08T16:17:00.704Z,2.70
2023-07-08T16:22:10.745Z,2.10
2023-07-08T16:27:19.079Z,2.40
2023-07-08T16:32:28.737Z,5.40
2023-07-08T16:37:37.086Z,2.30
2023-07-08T16:42:57.120Z,2.00
2023-07-08T16:48:05.570Z,2.10
2023-07-08T16:53:15.608Z,2.20
2023-07-08T16:58:23.898Z,1.80
2023-07-08T17:03:33.960Z,12.60
2023-07-08T17:08:42.423Z,7.20
2023-07-08T17:13:50.862Z,3.60
2023-07-08T17:19:00.576Z,2.50
2023-07-08T17:24:14.566Z,4.60
2023-07-08T17:29:26.041Z,2.90
2023-07-08T17:34:37.495Z,3.70
2023-07-08T17:39:46.248Z,3.00
2023-07-08T17:44:54.976Z,3.60
2023-07-08T17:50:03.359Z,3.00
2023-07-08T17:55:12.614Z,6.30
2023-07-08T18:00:31.764Z,4.40
2023-07-08T18:05:40.173Z,4.30
2023-07-08T18:10:48.902Z,3.70
2023-07-08T18:15:57.758Z,4.80
2023-07-08T18:21:13.867Z,5.90
2023-07-08T18:26:24.100Z,5.10
2023-07-08T18:31:36.334Z,17.90
2023-07-08T18:36:45.364Z,21.90
2023-07-08T18:41:53.697Z,25.40
2023-07-08T18:47:05.225Z,26.80
2023-07-08T18:52:14.171Z,27.50
2023-07-08T18:57:22.621Z,15.70
2023-07-08T19:02:38.676Z,15.50
2023-07-08T19:07:47.642Z,13.90
2023-07-08T19:12:56.150Z,10.00
2023-07-08T19:18:05.690Z,7.40
2023-07-08T19:23:18.375Z,23.00
2023-07-08T19:28:26.787Z,15.30
2023-07-08T19:33:38.003Z,5.50
2023-07-08T19:38:46.656Z,5.50
2023-07-08T19:43:56.123Z,6.40
2023-07-08T19:49:04.789Z,6.20
2023-07-08T19:54:13.456Z,6.40
2023-07-08T19:59:22.154Z,4.70
2023-07-08T20:04:32.245Z,5.10
2023-07-08T20:09:42.162Z,7.50
2023-07-08T20:14:50.922Z,9.20
2023-07-08T20:19:59.532Z,9.30
2023-07-08T20:25:10.377Z,4.70
2023-07-08T20:30:24.936Z,4.80
2023-07-08T20:35:35.878Z,4.30
2023-07-08T20:40:44.356Z,4.80
2023-07-08T20:45:56.106Z,5.80
2023-07-08T20:51:05.379Z,5.50
2023-07-08T20:56:19.635Z,4.20
2023-07-08T21:01:32.021Z,6.00
2023-07-08T21:06:40.791Z,5.30
2023-07-08T21:11:49.220Z,4.50
2023-07-08T21:16:58.077Z,4.50
2023-07-08T21:22:07.213Z,6.90
2023-07-08T21:27:24.532Z,8.80
2023-07-08T21:32:33.017Z,12.80
2023-07-08T21:37:51.988Z,12.10
2023-07-08T21:43:00.551Z,12.80
2023-07-08T21:48:11.735Z,10.40
2023-07-08T21:53:22.968Z,8.30
2023-07-08T21:58:32.146Z,6.30
2023-07-08T22:03:40.590Z,5.70
2023-07-08T22:08:49.367Z,4.90
2023-07-08T22:13:59.057Z,4.90
2023-07-08T22:19:07.578Z,4.80
2023-07-08T22:24:16.450Z,5.00
2023-07-08T22:29:24.814Z,4.60
2023-07-08T22:34:33.161Z,4.30
2023-07-08T22:39:41.977Z,4.20
2023-07-08T22:44:50.277Z,4.70
2023-07-08T22:49:59.285Z,4.30
2023-07-08T22:55:15.843Z,4.10
2023-07-08T23:00:26.498Z,4.30
2023-07-08T23:05:36.894Z,3.90
2023-07-08T23:10:46.134Z,4.40
2023-07-08T23:15:54.914Z,4.00
2023-07-08T23:21:04.002Z,4.30
2023-07-08T23:26:16.666Z,4.70
2023-07-08T23:31:26.029Z,3.90
2023-07-08T23:36:37.235Z,4.20
2023-07-08T23:41:45.754Z,4.10
2023-07-08T23:46:56.623Z,4.50
2023-07-08T23:52:05.593Z,4.40
2023-07-08T23:57:18.190Z,4.70
